createdAt,value
2023-02-05T00:00:19.441Z,-4.87
2023-02-05T00:02:48.904Z,-4.95
2023-02-05T00:05:18.861Z,-4.90
2023-02-05T00:07:47.601Z,-4.90
2023-02-05T00:10:19.753Z,-4.86
2023-02-05T00:12:48.080Z,-4.86
2023-02-05T00:15:16.443Z,-4.79
2023-02-05T00:17:44.655Z,-4.83
2023-02-05T00:20:13.877Z,-4.94
2023-02-05T00:22:43.523Z,-4.98
2023-02-05T00:25:12.041Z,-4.95
2023-02-05T00:27:40.387Z,-4.99
2023-02-05T00:30:10.918Z,-5.07
2023-02-05T00:32:39.287Z,-5.07
2023-02-05T00:35:08.462Z,-5.13
2023-02-05T00:37:37.341Z,-5.14
2023-02-05T00:40:08.570Z,-5.21
2023-02-05T00:42:37.518Z,-5.30
2023-02-05T00:45:10.614Z,-5.26
2023-02-05T00:47:39.143Z,-5.30
2023-02-05T00:50:08.123Z,-5.26
2023-02-05T00:52:37.181Z,-5.23
2023-02-05T00:55:08.430Z,-5.13
2023-02-05T00:57:37.060Z,-5.02
2023-02-05T01:00:07.067Z,-4.95
2023-02-05T01:02:35.726Z,-4.90
2023-02-05T01:05:04.373Z,-4.97
2023-02-05T01:07:33.225Z,-5.05
2023-02-05T01:10:01.873Z,-5.09
2023-02-05T01:12:36.066Z,-5.13
2023-02-05T01:15:08.161Z,-5.16
2023-02-05T01:17:37.081Z,-5.18
2023-02-05T01:20:07.192Z,-5.16
2023-02-05T01:22:35.799Z,-5.12
2023-02-05T01:25:04.677Z,-5.21
2023-02-05T01:27:36.530Z,-5.28
2023-02-05T01:30:06.747Z,-5.34
2023-02-05T01:32:36.793Z,-5.27
2023-02-05T01:35:05.900Z,-5.27
2023-02-05T01:37:34.846Z,-5.37
2023-02-05T01:40:06.754Z,-5.32
2023-02-05T01:42:36.730Z,-5.21
2023-02-05T01:45:51.754Z,-5.24
2023-02-05T01:48:26.365Z,-5.17
2023-02-05T01:51:00.517Z,-5.13
2023-02-05T01:53:37.133Z,-5.06
2023-02-05T01:56:11.519Z,-5.04
2023-02-05T01:58:46.689Z,-5.19
2023-02-05T02:01:15.796Z,-5.40
2023-02-05T02:03:45.440Z,-5.45
2023-02-05T02:06:13.852Z,-5.40
2023-02-05T02:08:42.159Z,-5.40
2023-02-05T02:11:17.329Z,-5.42
2023-02-05T02:13:50.024Z,-5.38
2023-02-05T02:16:21.469Z,-5.42
2023-02-05T02:18:50.976Z,-5.41
2023-02-05T02:22:22.183Z,-5.46
2023-02-05T02:25:11.934Z,-5.51
2023-02-05T02:27:46.919Z,-5.61
2023-02-05T02:30:25.424Z,-5.66
2023-02-05T02:33:07.093Z,-5.79
2023-02-05T02:35:47.088Z,-5.82
2023-02-05T02:38:23.499Z,-5.71
2023-02-05T02:40:57.237Z,-5.69
2023-02-05T02:43:39.254Z,-5.72
2023-02-05T02:46:17.443Z,-5.84
2023-02-05T02:48:49.463Z,-5.86
2023-02-05T02:51:20.948Z,-5.99
2023-02-05T02:53:54.395Z,-6.06
2023-02-05T02:56:28.520Z,-6.23
2023-02-05T02:59:06.341Z,-6.24
2023-02-05T03:01:46.932Z,-6.22
2023-02-05T03:04:26.483Z,-6.20
2023-02-05T03:07:01.305Z,-6.22
2023-02-05T03:09:39.229Z,-6.21
2023-02-05T03:12:08.598Z,-6.21
2023-02-05T03:14:39.708Z,-6.24
2023-02-05T03:17:08.515Z,-6.23
2023-02-05T03:19:37.435Z,-6.25
2023-02-05T03:22:07.877Z,-6.27
2023-02-05T03:24:38.094Z,-6.27
2023-02-05T03:27:06.630Z,-6.29
2023-02-05T03:29:44.819Z,-6.25
2023-02-05T03:33:00.149Z,-6.23
2023-02-05T03:35:42.117Z,-6.21
2023-02-05T03:38:39.731Z,-6.20
2023-02-05T03:41:45.313Z,-6.17
2023-02-05T03:44:29.540Z,-6.20
2023-02-05T03:47:11.359Z,-6.19
2023-02-05T03:49:53.452Z,-6.21
2023-02-05T03:52:30.656Z,-6.25
2023-02-05T03:55:09.277Z,-6.34
2023-02-05T03:57:49.343Z,-6.41
2023-02-05T04:00:19.133Z,-6.48
2023-02-05T04:02:50.493Z,-6.39
2023-02-05T04:05:23.105Z,-6.35
2023-02-05T04:07:54.690Z,-6.32
2023-02-05T04:10:27.514Z,-6.33
2023-02-05T04:12:56.642Z,-6.35
2023-02-05T04:15:25.857Z,-6.11
2023-02-05T04:17:58.901Z,-5.90
2023-02-05T04:20:29.689Z,-5.85
2023-02-05T04:22:58.964Z,-5.89
2023-02-05T04:25:28.961Z,-5.96
2023-02-05T04:28:02.112Z,-5.97
2023-02-05T04:30:32.023Z,-5.90
2023-02-05T04:33:02.452Z,-5.87
2023-02-05T04:35:31.153Z,-5.78
2023-02-05T04:38:00.009Z,-5.69
2023-02-05T04:40:28.780Z,-5.74
2023-02-05T04:42:57.102Z,-5.90
2023-02-05T04:45:29.057Z,-6.04
2023-02-05T04:47:57.477Z,-6.19
2023-02-05T04:50:27.968Z,-6.28
2023-02-05T04:52:56.303Z,-6.29
2023-02-05T04:55:24.895Z,-6.28
2023-02-05T04:57:56.890Z,-6.32
2023-02-05T05:00:26.160Z,-6.33
2023-02-05T05:02:54.903Z,-6.29
2023-02-05T05:05:26.273Z,-6.26
2023-02-05T05:07:55.936Z,-6.27
2023-02-05T05:10:24.635Z,-6.28
2023-02-05T05:12:54.553Z,-6.25
2023-02-05T05:15:24.186Z,-6.26
2023-02-05T05:17:52.524Z,-6.31
2023-02-05T05:20:21.068Z,-6.39
2023-02-05T05:22:50.003Z,-6.45
2023-02-05T05:25:19.926Z,-6.51
2023-02-05T05:27:48.586Z,-6.62
2023-02-05T05:30:17.361Z,-6.73
2023-02-05T05:32:46.210Z,-6.75
2023-02-05T05:35:14.998Z,-6.71
2023-02-05T05:37:43.342Z,-6.73
2023-02-05T05:40:31.655Z,-6.76
2023-02-05T05:43:18.732Z,-6.76
2023-02-05T05:45:47.162Z,-6.73
2023-02-05T05:48:15.476Z,-6.77
2023-02-05T05:50:44.184Z,-6.84
2023-02-05T05:53:12.479Z,-6.85
2023-02-05T05:55:42.007Z,-6.86
2023-02-05T05:58:12.547Z,-6.79
2023-02-05T06:00:42.197Z,-6.66
2023-02-05T06:03:12.615Z,-6.45
2023-02-05T06:05:41.713Z,-6.27
2023-02-05T06:08:09.947Z,-6.15
2023-02-05T06:10:38.308Z,-6.09
2023-02-05T06:13:06.666Z,-6.06
2023-02-05T06:15:36.782Z,-6.12
2023-02-05T06:18:05.634Z,-6.33
2023-02-05T06:20:33.902Z,-6.48
2023-02-05T06:23:02.644Z,-6.49
2023-02-05T06:25:31.018Z,-6.47
2023-02-05T06:27:59.412Z,-6.37
2023-02-05T06:30:28.128Z,-6.32
2023-02-05T06:32:57.826Z,-6.26
2023-02-05T06:35:26.252Z,-6.18
2023-02-05T06:37:54.911Z,-6.00
2023-02-05T06:40:25.895Z,-5.93
2023-02-05T06:42:54.810Z,-5.85
2023-02-05T06:45:23.873Z,-5.86
2023-02-05T06:47:55.908Z,-5.84
2023-02-05T06:50:29.891Z,-5.87
2023-02-05T06:52:58.256Z,-5.95
2023-02-05T06:55:26.743Z,-5.98
2023-02-05T06:57:55.139Z,-5.97
2023-02-05T07:00:23.857Z,-6.00
2023-02-05T07:02:53.245Z,-6.01
2023-02-05T07:05:21.671Z,-6.09
2023-02-05T07:07:51.401Z,-6.11
2023-02-05T07:10:20.206Z,-6.03
2023-02-05T07:12:48.573Z,-5.95
2023-02-05T07:15:16.975Z,-5.77
2023-02-05T07:17:45.430Z,-5.62
2023-02-05T07:20:14.109Z,-5.56
2023-02-05T07:22:42.489Z,-5.40
2023-02-05T07:25:12.185Z,-5.32
2023-02-05T07:27:40.939Z,-5.30
2023-02-05T07:30:11.248Z,-5.36
2023-02-05T07:32:39.846Z,-5.24
2023-02-05T07:35:08.673Z,-4.91
2023-02-05T07:37:39.493Z,-4.63
2023-02-05T07:40:09.802Z,-4.31
2023-02-05T07:42:39.552Z,-3.85
2023-02-05T07:45:10.581Z,-3.39
2023-02-05T07:47:39.264Z,-3.32
2023-02-05T07:50:08.170Z,-3.14
2023-02-05T07:52:36.534Z,-2.66
2023-02-05T07:55:04.932Z,-2.38
2023-02-05T07:57:33.240Z,-2.03
2023-02-05T08:00:07.544Z,-1.61
2023-02-05T08:02:40.761Z,-1.38
2023-02-05T08:05:09.958Z,-1.56
2023-02-05T08:07:39.085Z,-1.56
2023-02-05T08:10:08.477Z,-1.31
2023-02-05T08:12:36.948Z,-0.49
2023-02-05T08:15:07.386Z,-0.10
2023-02-05T08:17:36.081Z,0.02
2023-02-05T08:20:07.604Z,-0.11
2023-02-05T08:22:38.241Z,-0.20
2023-02-05T08:25:09.616Z,0.47
2023-02-05T08:27:39.984Z,1.35
2023-02-05T08:30:14.430Z,1.75
2023-02-05T08:32:43.109Z,3.00
2023-02-05T08:35:11.403Z,3.38
2023-02-05T08:37:39.701Z,3.74
2023-02-05T08:40:10.373Z,4.07
2023-02-05T08:42:38.625Z,3.59
2023-02-05T08:45:09.758Z,3.27
2023-02-05T08:47:38.750Z,3.81
2023-02-05T08:50:09.075Z,4.27
2023-02-05T08:52:37.946Z,4.01
2023-02-05T08:55:07.164Z,3.98
2023-02-05T08:57:35.802Z,4.39
2023-02-05T09:00:05.334Z,4.91
2023-02-05T09:02:35.096Z,5.18
2023-02-05T09:05:08.959Z,6.51
2023-02-05T09:07:39.398Z,6.30
2023-02-05T09:10:13.191Z,6.44
2023-02-05T09:12:41.846Z,5.27
2023-02-05T09:15:11.641Z,5.32
2023-02-05T09:17:41.337Z,5.44
2023-02-05T09:20:11.837Z,5.93
2023-02-05T09:22:40.507Z,5.73
2023-02-05T09:25:09.546Z,5.90
2023-02-05T09:27:37.837Z,5.04
2023-02-05T09:30:06.992Z,4.64
2023-02-05T09:32:35.527Z,4.32
2023-02-05T09:35:05.293Z,4.00
2023-02-05T09:37:33.581Z,3.62
2023-02-05T09:40:20.009Z,3.45
2023-02-05T09:43:02.760Z,2.60
2023-02-05T09:45:46.462Z,2.16
2023-02-05T09:48:53.043Z,1.60
2023-02-05T09:51:32.088Z,0.93
2023-02-05T09:54:13.099Z,1.35
2023-02-05T09:56:43.258Z,1.53
2023-02-05T09:59:18.233Z,1.89
2023-02-05T10:01:52.512Z,2.03
2023-02-05T10:04:21.376Z,2.08
2023-02-05T10:07:26.532Z,1.68
2023-02-05T10:10:18.747Z,1.60
2023-02-05T10:13:29.023Z,1.58
2023-02-05T10:16:23.360Z,1.82
2023-02-05T10:19:23.476Z,1.40
2023-02-05T10:22:13.471Z,1.29
2023-02-05T10:25:20.938Z,1.27
2023-02-05T10:28:04.897Z,0.95
2023-02-05T10:30:50.875Z,1.10
2023-02-05T10:33:29.219Z,1.08
2023-02-05T10:36:03.492Z,1.24
2023-02-05T10:38:41.050Z,1.39
2023-02-05T10:41:20.983Z,1.27
2023-02-05T10:43:55.297Z,1.21
2023-02-05T10:46:32.158Z,1.18
2023-02-05T10:49:09.488Z,1.13
2023-02-05T10:51:42.952Z,1.12
2023-02-05T10:54:22.004Z,1.22
2023-02-05T10:56:50.563Z,1.05
2023-02-05T10:59:26.976Z,1.04
2023-02-05T11:01:59.123Z,1.02
2023-02-05T11:04:38.997Z,1.16
2023-02-05T11:07:15.109Z,0.95
2023-02-05T11:09:46.205Z,0.99
2023-02-05T11:12:27.903Z,0.90
2023-02-05T11:15:05.964Z,0.79
2023-02-05T11:17:39.950Z,0.57
2023-02-05T11:20:25.364Z,0.62
2023-02-05T11:23:16.817Z,0.68
2023-02-05T11:26:08.228Z,0.61
2023-02-05T11:28:39.826Z,0.67
2023-02-05T11:31:26.414Z,0.80
2023-02-05T11:34:13.023Z,0.63
2023-02-05T11:36:51.029Z,0.62
2023-02-05T11:39:34.267Z,0.68
2023-02-05T11:42:16.939Z,0.52
2023-02-05T11:44:52.492Z,0.43
2023-02-05T11:47:29.740Z,0.49
2023-02-05T11:50:00.141Z,0.52
2023-02-05T11:52:32.305Z,0.48
2023-02-05T11:55:01.761Z,0.40
2023-02-05T11:57:39.013Z,0.36
2023-02-05T12:00:23.127Z,0.39
2023-02-05T12:03:02.501Z,0.43
2023-02-05T12:05:37.014Z,0.49
2023-02-05T12:08:14.149Z,0.54
2023-02-05T12:10:53.773Z,0.63
2023-02-05T12:13:44.096Z,0.51
2023-02-05T12:16:25.570Z,0.51
2023-02-05T12:19:04.820Z,0.60
2023-02-05T12:21:48.284Z,0.68
2023-02-05T12:24:47.574Z,0.84
2023-02-05T12:27:34.944Z,0.83
2023-02-05T12:30:28.590Z,0.70
2023-02-05T12:33:18.142Z,0.86
2023-02-05T12:36:04.710Z,1.00
2023-02-05T12:38:51.974Z,1.20
2023-02-05T12:41:37.701Z,1.14
2023-02-05T12:44:25.879Z,1.15
2023-02-05T12:47:24.121Z,1.18
2023-02-05T12:50:16.459Z,1.08
2023-02-05T12:53:06.821Z,1.07
2023-02-05T12:55:54.312Z,0.99
2023-02-05T12:58:27.123Z,1.02
2023-02-05T13:01:04.085Z,0.94
2023-02-05T13:03:42.107Z,0.94
2023-02-05T13:06:18.500Z,0.94
2023-02-05T13:08:54.148Z,0.84
2023-02-05T13:11:33.319Z,0.83
2023-02-05T13:14:15.321Z,0.79
2023-02-05T13:16:51.002Z,0.81
2023-02-05T13:19:29.561Z,0.83
2023-02-05T13:22:19.499Z,0.83
2023-02-05T13:25:11.285Z,0.79
2023-02-05T13:28:02.996Z,0.82
2023-02-05T13:30:39.871Z,0.82
2023-02-05T13:33:10.182Z,0.85
2023-02-05T13:35:58.766Z,0.80
2023-02-05T13:38:53.970Z,0.79
2023-02-05T13:42:08.678Z,0.85
2023-02-05T13:45:22.060Z,0.86
2023-02-05T13:48:12.688Z,0.90
2023-02-05T13:51:39.634Z,1.00
2023-02-05T13:54:50.878Z,1.05
2023-02-05T13:58:11.034Z,1.06
2023-02-05T14:00:43.643Z,1.09
2023-02-05T14:03:35.107Z,1.09
2023-02-05T14:06:24.495Z,1.05
2023-02-05T14:09:05.058Z,1.03
2023-02-05T14:11:56.784Z,1.03
2023-02-05T14:14:32.665Z,1.06
2023-02-05T14:17:03.139Z,1.07
2023-02-05T14:19:57.272Z,0.93
2023-02-05T14:22:42.643Z,0.94
2023-02-05T14:26:06.485Z,0.87
2023-02-05T14:28:48.312Z,0.83
2023-02-05T14:31:50.847Z,0.79
2023-02-05T14:35:00.732Z,0.69
2023-02-05T14:37:40.928Z,0.67
2023-02-05T14:40:32.395Z,0.68
2023-02-05T14:43:13.834Z,0.63
2023-02-05T14:45:51.268Z,0.65
2023-02-05T14:48:26.756Z,0.59
2023-02-05T14:51:10.045Z,0.54
2023-02-05T14:53:39.962Z,0.48
2023-02-05T14:56:09.206Z,0.43
2023-02-05T14:58:44.367Z,0.37
2023-02-05T15:01:45.773Z,0.35
2023-02-05T15:04:29.539Z,0.32
2023-02-05T15:07:02.662Z,0.26
2023-02-05T15:09:44.713Z,0.27
2023-02-05T15:12:57.457Z,0.20
2023-02-05T15:15:33.525Z,0.19
2023-02-05T15:18:25.246Z,0.11
2023-02-05T15:20:57.592Z,0.11
2023-02-05T15:23:36.993Z,0.06
2023-02-05T15:26:09.824Z,0.07
2023-02-05T15:28:47.895Z,0.08
2023-02-05T15:31:32.784Z,0.07
2023-02-05T15:34:21.644Z,0.12
2023-02-05T15:36:55.980Z,0.14
2023-02-05T15:39:32.980Z,0.14
2023-02-05T15:42:04.400Z,0.16
2023-02-05T15:44:35.615Z,0.10
2023-02-05T15:47:14.448Z,0.07
2023-02-05T15:49:49.642Z,0.07
2023-02-05T15:52:26.852Z,0.07
2023-02-05T15:55:00.292Z,0.07
2023-02-05T15:57:32.274Z,0.03
2023-02-05T16:00:03.090Z,-0.08
2023-02-05T16:02:33.271Z,-0.10
2023-02-05T16:05:18.044Z,-0.12
2023-02-05T16:07:51.930Z,-0.16
2023-02-05T16:10:24.372Z,-0.11
2023-02-05T16:13:00.814Z,-0.09
2023-02-05T16:15:35.045Z,-0.08
2023-02-05T16:18:12.408Z,-0.10
2023-02-05T16:20:48.117Z,-0.11
2023-02-05T16:23:25.451Z,-0.15
2023-02-05T16:25:58.594Z,-0.12
2023-02-05T16:28:44.396Z,-0.09
2023-02-05T16:31:20.679Z,-0.14
2023-02-05T16:33:55.776Z,-0.10
2023-02-05T16:36:31.378Z,-0.07
2023-02-05T16:39:05.675Z,-0.07
2023-02-05T16:41:39.630Z,-0.13
2023-02-05T16:44:28.043Z,-0.13
2023-02-05T16:47:15.277Z,-0.14
2023-02-05T16:49:44.694Z,-0.14
2023-02-05T16:52:32.595Z,-0.13
2023-02-05T16:55:07.391Z,-0.17
2023-02-05T16:57:39.582Z,-0.20
2023-02-05T17:00:21.466Z,-0.29
2023-02-05T17:02:56.841Z,-0.29
2023-02-05T17:05:29.624Z,-0.38
2023-02-05T17:08:02.897Z,-0.43
2023-02-05T17:10:31.798Z,-0.38
2023-02-05T17:13:04.943Z,-0.44
2023-02-05T17:15:40.294Z,-0.45
2023-02-05T17:18:32.177Z,-0.52
2023-02-05T17:21:25.773Z,-0.57
2023-02-05T17:23:57.837Z,-0.71
2023-02-05T17:26:30.799Z,-0.82
2023-02-05T17:29:02.707Z,-0.82
2023-02-05T17:31:35.861Z,-0.81
2023-02-05T17:34:05.240Z,-0.86
2023-02-05T17:36:34.040Z,-0.93
2023-02-05T17:39:03.725Z,-0.89
2023-02-05T17:41:56.163Z,-0.93
2023-02-05T17:44:24.434Z,-1.03
2023-02-05T17:46:54.134Z,-1.00
2023-02-05T17:49:23.880Z,-1.08
2023-02-05T17:51:52.241Z,-1.15
2023-02-05T17:54:25.486Z,-1.24
2023-02-05T17:56:57.906Z,-1.21
2023-02-05T17:59:27.628Z,-1.27
2023-02-05T18:01:55.932Z,-1.31
2023-02-05T18:04:24.300Z,-1.39
2023-02-05T18:06:53.951Z,-1.43
2023-02-05T18:09:23.718Z,-1.51
2023-02-05T18:11:52.057Z,-1.52
2023-02-05T18:14:20.564Z,-1.63
2023-02-05T18:16:52.416Z,-1.70
2023-02-05T18:19:20.789Z,-1.77
2023-02-05T18:21:49.686Z,-1.87
2023-02-05T18:24:17.924Z,-1.98
2023-02-05T18:26:52.319Z,-2.06
2023-02-05T18:29:21.496Z,-2.24
2023-02-05T18:31:50.130Z,-2.30
2023-02-05T18:34:18.809Z,-2.31
2023-02-05T18:36:47.130Z,-2.35
2023-02-05T18:39:15.805Z,-2.38
2023-02-05T18:41:44.497Z,-2.41
2023-02-05T18:44:16.007Z,-2.37
2023-02-05T18:46:44.690Z,-2.29
2023-02-05T18:49:13.346Z,-2.28
2023-02-05T18:51:41.712Z,-2.26
2023-02-05T18:54:10.678Z,-2.27
2023-02-05T18:56:39.712Z,-2.31
2023-02-05T18:59:13.188Z,-2.22
2023-02-05T19:01:44.191Z,-2.22
2023-02-05T19:04:15.047Z,-2.16
2023-02-05T19:06:44.526Z,-2.16
2023-02-05T19:09:13.954Z,-2.19
2023-02-05T19:11:43.616Z,-2.25
2023-02-05T19:14:15.453Z,-2.24
2023-02-05T19:16:47.202Z,-2.30
2023-02-05T19:19:18.068Z,-2.35
2023-02-05T19:21:47.775Z,-2.42
2023-02-05T19:24:18.491Z,-2.44
2023-02-05T19:26:48.253Z,-2.42
2023-02-05T19:29:20.461Z,-2.39
2023-02-05T19:31:52.214Z,-2.32
2023-02-05T19:34:22.220Z,-2.28
2023-02-05T19:36:50.816Z,-2.20
2023-02-05T19:39:19.080Z,-2.17
2023-02-05T19:41:48.407Z,-2.18
2023-02-05T19:44:17.503Z,-2.20
2023-02-05T19:46:48.856Z,-2.12
2023-02-05T19:49:21.080Z,-2.06
2023-02-05T19:51:52.798Z,-2.04
2023-02-05T19:54:21.888Z,-1.98
2023-02-05T19:56:50.958Z,-1.90
2023-02-05T19:59:19.830Z,-1.81
2023-02-05T20:01:49.946Z,-1.79
2023-02-05T20:04:24.327Z,-1.69
2023-02-05T20:06:57.510Z,-1.70
2023-02-05T20:09:27.784Z,-1.61
2023-02-05T20:11:56.278Z,-1.64
2023-02-05T20:14:26.113Z,-1.64
2023-02-05T20:16:54.888Z,-1.61
2023-02-05T20:19:24.598Z,-1.60
2023-02-05T20:21:52.889Z,-1.58
2023-02-05T20:24:21.210Z,-1.60
2023-02-05T20:26:49.639Z,-1.58
2023-02-05T20:29:35.734Z,-1.53
2023-02-05T20:32:04.180Z,-1.46
2023-02-05T20:34:36.282Z,-1.44
2023-02-05T20:37:09.035Z,-1.42
2023-02-05T20:39:41.801Z,-1.44
2023-02-05T20:42:13.462Z,-1.51
2023-02-05T20:44:43.186Z,-1.66
2023-02-05T20:47:14.581Z,-1.85
2023-02-05T20:49:44.488Z,-1.95
2023-02-05T20:52:13.164Z,-2.16
2023-02-05T20:54:44.773Z,-2.38
2023-02-05T20:57:13.830Z,-2.58
2023-02-05T20:59:42.207Z,-2.70
2023-02-05T21:02:13.689Z,-2.77
2023-02-05T21:04:43.721Z,-2.81
2023-02-05T21:07:12.400Z,-2.91
2023-02-05T21:09:41.121Z,-2.98
2023-02-05T21:12:09.597Z,-3.03
2023-02-05T21:14:38.886Z,-3.06
2023-02-05T21:17:09.284Z,-3.23
2023-02-05T21:19:37.618Z,-3.36
2023-02-05T21:22:11.289Z,-3.48
2023-02-05T21:24:39.907Z,-3.50
2023-02-05T21:27:08.797Z,-3.52
2023-02-05T21:29:37.134Z,-3.57
2023-02-05T21:32:05.968Z,-3.58
2023-02-05T21:34:34.622Z,-3.54
2023-02-05T21:37:03.264Z,-3.65
2023-02-05T21:39:33.677Z,-3.72
2023-02-05T21:42:02.191Z,-3.81
2023-02-05T21:44:30.880Z,-3.79
2023-02-05T21:47:00.142Z,-3.71
2023-02-05T21:49:28.603Z,-3.63
2023-02-05T21:51:57.236Z,-3.65
2023-02-05T21:54:25.941Z,-3.70
2023-02-05T21:56:55.863Z,-3.75
2023-02-05T21:59:24.319Z,-3.84
2023-02-05T22:01:53.592Z,-3.83
2023-02-05T22:04:21.950Z,-3.87
2023-02-05T22:06:51.917Z,-3.85
2023-02-05T22:09:20.606Z,-3.79
2023-02-05T22:11:51.085Z,-3.69
2023-02-05T22:14:21.236Z,-3.54
2023-02-05T22:16:49.764Z,-3.55
2023-02-05T22:19:18.091Z,-3.60
2023-02-05T22:21:46.378Z,-3.73
2023-02-05T22:24:17.772Z,-3.84
2023-02-05T22:26:47.070Z,-3.98
2023-02-05T22:29:18.317Z,-4.11
2023-02-05T22:31:52.250Z,-4.20
2023-02-05T22:34:21.014Z,-4.28
2023-02-05T22:36:49.344Z,-4.35
2023-02-05T22:39:17.650Z,-4.36
2023-02-05T22:41:46.377Z,-4.40
2023-02-05T22:44:18.688Z,-4.36
2023-02-05T22:46:48.485Z,-4.34
2023-02-05T22:49:16.906Z,-4.37
2023-02-05T22:51:45.758Z,-4.34
2023-02-05T22:54:16.007Z,-4.35
2023-02-05T22:56:48.315Z,-4.40
2023-02-05T22:59:17.016Z,-4.49
2023-02-05T23:01:45.406Z,-4.53
2023-02-05T23:04:15.130Z,-4.59
2023-02-05T23:06:45.189Z,-4.46
2023-02-05T23:09:16.796Z,-4.30
2023-02-05T23:11:46.684Z,-4.15
2023-02-05T23:14:17.571Z,-4.06
2023-02-05T23:16:48.186Z,-3.99
2023-02-05T23:19:22.414Z,-3.97
2023-02-05T23:21:51.062Z,-3.97
2023-02-05T23:24:21.396Z,-4.02
2023-02-05T23:26:53.437Z,-4.01
2023-02-05T23:29:22.471Z,-4.07
2023-02-05T23:31:54.232Z,-4.05
2023-02-05T23:34:23.961Z,-4.08
2023-02-05T23:36:52.627Z,-4.16
2023-02-05T23:39:21.038Z,-4.16
2023-02-05T23:41:49.315Z,-4.21
2023-02-05T23:44:23.870Z,-4.28
2023-02-05T23:46:53.046Z,-4.31
2023-02-05T23:49:23.635Z,-4.43
2023-02-05T23:51:54.042Z,-4.53
2023-02-05T23:54:23.643Z,-4.65
2023-02-05T23:56:52.379Z,-4.73
2023-02-05T23:59:20.732Z,-4.70
